Time;durP1;ratioP1;P1;durP2;ratioP2;P2;SDS_P1;SDS_P2;PMS_P1;PMS_P2;Temp;Humidity;BMP_temperature;BMP_pressure;BME280_temperature;BME280_humidity;BME280_pressure;Samples;Min_cycle;Max_cycle;Signal;HPM_P1;HPM_P2
2024/02/28 00:00:51;;;;;;;93.62;57.35;;;;;;;9.92;86.93;100229.22;1755263;81;25614;-67
2024/02/28 00:03:19;;;;;;;92.82;53.10;;;;;;;9.91;86.94;100223.59;1755223;81;25959;-68
2024/02/28 00:05:46;;;;;;;82.02;49.25;;;;;;;9.92;87.38;100226.52;1755135;81;25722;-62
2024/02/28 00:08:12;;;;;;;83.15;47.67;;;;;;;9.94;87.63;100222.95;1755256;81;25545;-61
2024/02/28 00:10:39;;;;;;;73.67;43.60;;;;;;;9.94;87.83;100225.66;1755029;81;25798;-61
2024/02/28 00:13:05;;;;;;;81.10;49.80;;;;;;;9.95;88.03;100221.86;1755158;81;25553;-63
2024/02/28 00:15:31;;;;;;;75.90;47.15;;;;;;;9.96;87.92;100222.12;1755175;81;27821;-63
2024/02/28 00:17:58;;;;;;;78.50;45.17;;;;;;;9.98;88.31;100221.81;1755079;81;25720;-61
2024/02/28 00:20:27;;;;;;;79.35;47.00;;;;;;;10.00;88.25;100226.36;1755165;81;25607;-62
2024/02/28 00:22:53;;;;;;;78.42;45.80;;;;;;;10.01;88.28;100222.53;1754035;81;25843;-63
2024/02/28 00:25:19;;;;;;;82.08;47.48;;;;;;;10.02;88.23;100222.79;1754331;81;25582;-63
2024/02/28 00:27:46;;;;;;;78.55;47.17;;;;;;;10.03;88.33;100223.05;1754065;81;27757;-62
2024/02/28 00:30:14;;;;;;;79.00;47.80;;;;;;;10.05;88.26;100223.53;1755080;81;25513;-62
2024/02/28 00:32:41;;;;;;;68.75;42.00;;;;;;;10.06;88.48;100221.88;1755109;81;25575;-61
2024/02/28 00:35:08;;;;;;;70.57;44.53;;;;;;;10.06;88.48;100223.23;1755091;81;25528;-63
2024/02/28 00:37:35;;;;;;;77.27;46.35;;;;;;;10.07;88.71;100226.16;1755190;81;25566;-63
2024/02/28 00:40:02;;;;;;;83.37;46.02;;;;;;;10.08;88.78;100225.06;1755160;81;27883;-64
2024/02/28 00:42:28;;;;;;;67.58;41.70;;;;;;;10.08;88.63;100231.82;1755139;81;26190;-63
2024/02/28 00:44:54;;;;;;;69.58;42.93;;;;;;;10.08;88.55;100233.73;1755105;81;25519;-63
2024/02/28 00:47:21;;;;;;;62.35;39.15;;;;;;;10.08;88.58;100233.17;1755093;81;25876;-63
2024/02/28 00:49:47;;;;;;;62.03;39.00;;;;;;;10.08;88.73;100229.68;1755195;81;25612;-62
2024/02/28 00:52:14;;;;;;;74.12;42.95;;;;;;;10.09;88.97;100224.50;1755082;81;27554;-62
2024/02/28 00:54:42;;;;;;;74.15;45.45;;;;;;;10.10;89.10;100222.06;1755094;81;25745;-63
2024/02/28 00:57:08;;;;;;;70.70;42.17;;;;;;;10.12;89.04;100229.30;1755210;81;25477;-63
2024/02/28 00:59:34;;;;;;;74.97;46.28;;;;;;;10.12;89.04;100223.89;1755208;81;26080;-63
2024/02/28 01:02:03;;;;;;;79.12;46.20;;;;;;;10.14;88.97;100228.44;1755308;81;25583;-62
2024/02/28 01:04:30;;;;;;;67.72;41.92;;;;;;;10.14;89.00;100227.09;1755526;81;27486;-62
2024/02/28 01:06:56;;;;;;;73.12;45.60;;;;;;;10.15;88.94;100236.80;1755159;81;26198;-63
2024/02/28 01:09:23;;;;;;;72.40;44.50;;;;;;;10.15;88.83;100235.45;1755270;81;25202;-63
2024/02/28 01:11:49;;;;;;;73.50;46.28;;;;;;;10.16;88.50;100234.89;1755218;81;25935;-63
2024/02/28 01:14:16;;;;;;;76.95;46.10;;;;;;;10.15;88.46;100244.09;1755258;81;25523;-62
2024/02/28 01:16:42;;;;;;;75.30;44.85;;;;;;;10.14;88.32;100244.65;1755229;81;28466;-63
2024/02/28 01:19:08;;;;;;;69.15;39.30;;;;;;;10.14;88.27;100248.70;1755142;81;25732;-62
2024/02/28 01:21:35;;;;;;;67.10;40.92;;;;;;;10.12;88.37;100248.22;1755244;81;25554;-63
2024/02/28 01:24:01;;;;;;;67.75;41.23;;;;;;;10.13;88.81;100250.36;1755241;81;25585;-62
2024/02/28 01:26:27;;;;;;;71.28;43.17;;;;;;;10.13;88.94;100254.41;1755265;81;25590;-68
2024/02/28 01:28:54;;;;;;;72.30;43.35;;;;;;;10.14;89.06;100264.13;1755248;81;28595;-68
2024/02/28 01:31:20;;;;;;;67.12;39.67;;;;;;;10.12;89.18;100263.64;1755135;81;26126;-68
2024/02/28 01:33:46;;;;;;;68.22;41.13;;;;;;;10.10;89.34;100260.69;1755234;81;25556;-68
2024/02/28 01:36:13;;;;;;;65.60;39.25;;;;;;;10.08;89.33;100260.76;1755210;81;26511;-69
2024/02/28 01:38:41;;;;;;;63.20;38.85;;;;;;;10.07;89.58;100272.10;1755296;81;25638;-69
2024/02/28 01:41:07;;;;;;;65.12;40.60;;;;;;;10.06;89.75;100267.82;1755246;81;28155;-69
2024/02/28 01:43:34;;;;;;;67.47;41.08;;;;;;;10.06;89.87;100261.59;1755178;81;25563;-69
2024/02/28 01:46:04;;;;;;;66.35;40.73;;;;;;;10.06;90.12;100265.12;1755239;81;25588;-69
2024/02/28 01:48:31;;;;;;;66.90;41.65;;;;;;;10.04;90.02;100259.20;1755284;81;25531;-69
2024/02/28 01:51:00;;;;;;;67.72;41.15;;;;;;;10.04;90.21;100269.22;1755396;81;25631;-69
2024/02/28 01:53:27;;;;;;;66.55;41.80;;;;;;;10.04;90.05;100266.52;1755318;81;27481;-69
2024/02/28 01:55:55;;;;;;;71.92;42.50;;;;;;;10.03;90.34;100271.69;1755243;81;25391;-69
2024/02/28 01:58:22;;;;;;;72.00;42.17;;;;;;;10.01;90.23;100270.64;1755278;81;25515;-69
2024/02/28 02:00:49;;;;;;;66.15;41.77;;;;;;;10.02;90.24;100276.27;1755170;81;26041;-69
2024/02/28 02:03:16;;;;;;;68.17;41.75;;;;;;;10.02;90.16;100270.87;1755235;81;25641;-70
2024/02/28 02:05:44;;;;;;;71.25;41.28;;;;;;;10.01;90.66;100274.69;1755286;81;27456;-70
2024/02/28 02:08:11;;;;;;;62.70;40.15;;;;;;;10.00;90.71;100275.00;1755146;81;25518;-69
2024/02/28 02:10:38;;;;;;;62.40;39.73;;;;;;;9.99;90.89;100285.55;1755112;81;25455;-69
2024/02/28 02:13:06;;;;;;;69.15;41.40;;;;;;;9.96;91.03;100286.14;1755150;81;25445;-69
2024/02/28 02:15:32;;;;;;;66.60;39.48;;;;;;;9.93;91.18;100280.81;1755234;81;25460;-69
2024/02/28 02:18:02;;;;;;;63.33;40.00;;;;;;;9.91;91.50;100283.82;1755310;81;27493;-69
2024/02/28 02:20:33;;;;;;;64.10;39.88;;;;;;;9.88;91.82;100275.53;1755307;81;25548;-69
2024/02/28 02:23:00;;;;;;;67.55;40.63;;;;;;;9.86;91.99;100277.74;1755225;81;25453;-69
2024/02/28 02:25:27;;;;;;;77.32;41.08;;;;;;;9.85;92.28;100282.33;1755244;81;26114;-69
2024/02/28 02:27:54;;;;;;;61.75;39.10;;;;;;;9.85;92.48;100286.38;1755310;81;25597;-69
2024/02/28 02:30:20;;;;;;;66.22;39.50;;;;;;;9.82;92.57;100286.98;1755209;81;27463;-70
2024/02/28 02:32:47;;;;;;;65.95;40.15;;;;;;;9.83;92.81;100295.34;1755069;81;26145;-69
2024/02/28 02:35:13;;;;;;;70.22;41.28;;;;;;;9.80;93.13;100293.24;1755214;81;25578;-69
2024/02/28 02:37:45;;;;;;;62.43;41.50;;;;;;;9.79;93.50;100283.56;1755185;81;25845;-69
2024/02/28 02:40:15;;;;;;;68.62;42.15;;;;;;;9.77;93.70;100279.55;1755251;81;25589;-67
2024/02/28 02:42:42;;;;;;;63.08;39.70;;;;;;;9.76;94.07;100269.86;1755176;81;27472;-66
2024/02/28 02:45:10;;;;;;;68.40;40.63;;;;;;;9.77;94.32;100271.44;1755102;81;25559;-66
2024/02/28 02:47:36;;;;;;;68.25;41.60;;;;;;;9.78;94.15;100251.44;1755191;81;25459;-66
2024/02/28 02:50:06;;;;;;;66.28;40.38;;;;;;;9.77;93.94;100247.13;1755177;81;26464;-66
2024/02/28 02:52:32;;;;;;;;;;;;;;;9.78;93.99;100257.64;1757823;81;25433;-67
2024/02/28 02:54:59;;;;;;;62.25;39.92;;;;;;;9.79;94.49;100257.08;1755222;81;27828;-67
2024/02/28 02:57:25;;;;;;;64.90;40.73;;;;;;;9.79;94.51;100259.24;1755094;81;25489;-67
2024/02/28 02:59:52;;;;;;;67.97;40.50;;;;;;;9.79;94.62;100253.02;1755163;81;25618;-67
2024/02/28 03:02:19;;;;;;;64.55;40.25;;;;;;;9.81;94.50;100244.09;1755184;81;25629;-67
2024/02/28 03:04:46;;;;;;;62.40;40.12;;;;;;;9.81;94.29;100235.98;1755208;81;25603;-67
2024/02/28 03:07:13;;;;;;;69.60;40.25;;;;;;;9.81;94.08;100242.17;1755149;81;28040;-67
2024/02/28 03:09:40;;;;;;;69.12;42.90;;;;;;;9.80;94.41;100235.16;1729164;81;25513;-67
2024/02/28 03:12:09;;;;;;;66.53;41.13;;;;;;;9.81;94.57;100241.38;1763219;81;25415;-67
2024/02/28 03:14:37;;;;;;;61.63;39.53;;;;;;;9.82;94.96;100242.97;1765059;81;26277;-66
2024/02/28 03:17:04;;;;;;;65.50;40.38;;;;;;;9.81;94.81;100238.13;1765144;81;25411;-67
2024/02/28 03:19:30;;;;;;;63.42;41.10;;;;;;;9.81;94.38;100244.09;1765195;81;26968;-67
2024/02/28 03:21:57;;;;;;;67.22;40.20;;;;;;;9.81;94.91;100246.78;1765027;81;25389;-67
2024/02/28 03:24:23;;;;;;;60.17;39.38;;;;;;;9.80;95.06;100242.48;1765126;81;25462;-67
2024/02/28 03:26:49;;;;;;;63.55;40.35;;;;;;;9.79;94.74;100245.73;1765091;81;26011;-67
2024/02/28 03:29:16;;;;;;;59.63;37.38;;;;;;;9.78;94.65;100241.98;1765195;81;25453;-68
2024/02/28 03:31:42;;;;;;;64.42;38.42;;;;;;;9.77;94.47;100241.73;1765134;81;28021;-67
2024/02/28 03:34:09;;;;;;;64.25;40.52;;;;;;;9.76;94.33;100247.70;1765021;81;25577;-67
2024/02/28 03:36:37;;;;;;;62.35;39.42;;;;;;;9.75;94.21;100250.69;1765132;81;25533;-67
2024/02/28 03:39:03;;;;;;;64.30;39.40;;;;;;;9.73;94.04;100263.94;1765085;81;25875;-67
2024/02/28 03:41:30;;;;;;;64.07;40.50;;;;;;;9.72;94.07;100268.29;1765143;81;25565;-67
2024/02/28 03:43:56;;;;;;;72.37;41.13;;;;;;;9.67;94.37;100264.35;1765090;81;27389;-67
2024/02/28 03:46:22;;;;;;;67.05;42.58;;;;;;;9.63;94.43;100262.81;1765034;81;25396;-67
2024/02/28 03:48:50;;;;;;;68.20;42.67;;;;;;;9.60;94.64;100270.72;1765101;81;25471;-67
2024/02/28 03:51:17;;;;;;;63.85;39.33;;;;;;;9.56;95.13;100274.58;1765120;81;25381;-67
2024/02/28 03:53:44;;;;;;;67.78;40.58;;;;;;;9.53;95.52;100280.05;1765102;81;25409;-67
2024/02/28 03:56:11;;;;;;;68.85;41.37;;;;;;;9.50;95.85;100282.00;1765091;81;28045;-67
2024/02/28 03:58:40;;;;;;;69.22;41.63;;;;;;;9.47;96.12;100274.50;1765014;81;26282;-68
2024/02/28 04:01:07;;;;;;;66.90;40.70;;;;;;;9.46;96.28;100272.09;1765118;81;25399;-68
2024/02/28 04:03:33;;;;;;;70.97;43.15;;;;;;;9.44;96.42;100265.64;1765076;81;26037;-67
2024/02/28 04:05:59;;;;;;;70.12;40.30;;;;;;;9.44;96.54;100263.50;1765171;81;25667;-67
2024/02/28 04:08:25;;;;;;;61.65;39.42;;;;;;;9.44;96.47;100263.50;1765080;81;27431;-67
2024/02/28 04:10:51;;;;;;;63.98;39.95;;;;;;;9.42;96.41;100261.66;1764890;81;25384;-67
2024/02/28 04:13:18;;;;;;;66.62;38.63;;;;;;;9.41;96.27;100254.09;1765131;81;25641;-67
2024/02/28 04:15:46;;;;;;;61.20;38.78;;;;;;;9.39;96.03;100245.50;1765010;81;26449;-67
2024/02/28 04:18:13;;;;;;;66.72;39.98;;;;;;;9.37;96.04;100249.06;1765209;81;25651;-67
2024/02/28 04:20:41;;;;;;;62.40;38.95;;;;;;;9.35;96.07;100248.01;1765258;81;27819;-69
2024/02/28 04:23:08;;;;;;;61.23;38.78;;;;;;;9.32;96.03;100243.20;1765010;81;25624;-67
2024/02/28 04:25:34;;;;;;;61.50;39.38;;;;;;;9.31;95.80;100247.03;1765123;81;25482;-67
2024/02/28 04:28:03;;;;;;;60.33;38.58;;;;;;;9.30;95.84;100245.41;1765059;81;25509;-68
2024/02/28 04:30:30;;;;;;;68.10;43.67;;;;;;;9.31;95.72;100250.25;1765361;80;25557;-67
2024/02/28 04:32:56;;;;;;;62.67;38.63;;;;;;;9.29;96.25;100251.91;1765051;81;28155;-67
2024/02/28 04:35:23;;;;;;;69.42;39.88;;;;;;;9.29;95.87;100260.56;1764784;81;26028;-67
2024/02/28 04:37:50;;;;;;;61.80;38.58;;;;;;;9.28;95.73;100266.52;1765252;81;25637;-67
2024/02/28 04:40:16;;;;;;;63.98;39.53;;;;;;;9.28;95.85;100267.05;1765173;81;25522;-67
2024/02/28 04:42:43;;;;;;;68.85;41.02;;;;;;;9.26;96.38;100270.08;1765293;81;25527;-67
2024/02/28 04:45:10;;;;;;;71.42;43.02;;;;;;;9.23;96.19;100274.72;1765237;81;27104;-67
2024/02/28 04:47:38;;;;;;;68.52;40.80;;;;;;;9.20;96.15;100268.56;1765233;81;25695;-66
2024/02/28 04:50:08;;;;;;;63.13;39.88;;;;;;;9.16;96.40;100272.97;1765262;81;25538;-66
2024/02/28 04:52:36;;;;;;;66.47;41.45;;;;;;;9.12;96.55;100274.09;1735055;81;25579;-66
2024/02/28 04:55:04;;;;;;;71.77;43.63;;;;;;;9.10;96.87;100284.95;1765201;81;25626;-67
2024/02/28 04:57:31;;;;;;;68.97;42.10;;;;;;;9.06;97.06;100279.36;1765390;81;27306;-67
2024/02/28 04:59:57;;;;;;;66.45;40.45;;;;;;;9.03;97.15;100274.55;1765252;81;25622;-66
2024/02/28 05:02:25;;;;;;;66.70;40.67;;;;;;;9.02;97.40;100279.69;1765221;81;25643;-67
2024/02/28 05:04:52;;;;;;;67.45;42.90;;;;;;;9.00;97.35;100285.94;1765196;81;25463;-67
2024/02/28 05:07:19;;;;;;;65.32;41.15;;;;;;;8.98;97.48;100290.84;1765222;81;25423;-67
2024/02/28 05:09:45;;;;;;;73.28;43.13;;;;;;;8.94;97.55;100289.84;1765229;81;27555;-66
2024/02/28 05:12:12;;;;;;;64.05;41.25;;;;;;;8.92;97.88;100290.14;1765033;81;25422;-67
2024/02/28 05:14:38;;;;;;;61.08;38.17;;;;;;;8.91;98.06;100295.27;1765200;81;25476;-67
2024/02/28 05:17:04;;;;;;;63.30;39.23;;;;;;;8.90;97.83;100290.16;1765241;81;25719;-67
2024/02/28 05:19:31;;;;;;;66.05;39.45;;;;;;;8.89;97.81;100293.98;1765274;80;25549;-66
2024/02/28 05:21:57;;;;;;;67.42;41.68;;;;;;;8.86;97.48;100288.62;1765213;81;27483;-67
2024/02/28 05:24:23;;;;;;;63.23;41.23;;;;;;;8.84;97.41;100289.47;1765113;81;26203;-67
2024/02/28 05:26:51;;;;;;;69.42;43.75;;;;;;;8.82;97.82;100303.80;1765192;81;25425;-67
2024/02/28 05:29:17;;;;;;;71.70;44.90;;;;;;;8.79;98.24;100303.84;1765275;81;26170;-67
2024/02/28 05:31:44;;;;;;;68.75;42.30;;;;;;;8.77;97.95;100308.73;1765261;81;25649;-67
2024/02/28 05:34:10;;;;;;;72.37;43.08;;;;;;;8.74;98.00;100314.71;1765168;81;28215;-66
2024/02/28 05:36:37;;;;;;;72.20;43.33;;;;;;;8.73;98.62;100310.96;1765144;81;25621;-66
2024/02/28 05:39:05;;;;;;;65.70;41.28;;;;;;;8.73;98.87;100312.31;1765205;81;25599;-65
2024/02/28 05:41:32;;;;;;;72.37;42.53;;;;;;;8.72;99.30;100314.22;1765159;81;26246;-66
2024/02/28 05:43:58;;;;;;;70.65;41.80;;;;;;;8.72;99.36;100315.56;1765200;81;25582;-66
2024/02/28 05:46:26;;;;;;;71.02;42.65;;;;;;;8.74;99.49;100316.06;1765245;81;28074;-66
2024/02/28 05:48:52;;;;;;;69.30;42.30;;;;;;;8.74;99.72;100320.11;1765096;81;25456;-66
2024/02/28 05:51:20;;;;;;;65.90;41.53;;;;;;;8.76;99.86;100321.95;1765224;81;25421;-66
2024/02/28 05:53:46;;;;;;;73.07;39.48;;;;;;;8.77;99.89;100318.73;1765158;81;26466;-66
2024/02/28 05:56:19;;;;;;;66.57;40.65;;;;;;;8.79;99.89;100317.88;1765299;81;25645;-66
2024/02/28 05:58:47;;;;;;;67.95;42.93;;;;;;;8.79;99.96;100318.67;1765195;81;27532;-66
2024/02/28 06:01:18;;;;;;;72.82;41.63;;;;;;;8.80;99.94;100318.11;1765410;81;25643;-67
2024/02/28 06:03:49;;;;;;;68.37;42.60;;;;;;;8.80;100.00;100330.25;1765325;81;25469;-66
2024/02/28 06:06:16;;;;;;;67.30;42.30;;;;;;;8.81;100.00;100333.77;1765193;81;25809;-67
2024/02/28 06:08:45;;;;;;;76.55;41.08;;;;;;;8.81;100.00;100330.52;1765231;81;25402;-68
2024/02/28 06:11:12;;;;;;;71.42;42.20;;;;;;;8.82;100.00;100329.43;1765248;81;27470;-66
2024/02/28 06:13:41;;;;;;;67.03;41.48;;;;;;;8.81;100.00;100330.52;1765087;81;26186;-67
2024/02/28 06:16:08;;;;;;;66.42;43.52;;;;;;;8.81;100.00;100331.86;1765388;81;35144;-68
2024/02/28 06:18:36;;;;;;;71.65;43.50;;;;;;;8.79;100.00;100326.77;1765240;81;26528;-67
2024/02/28 06:21:04;;;;;;;75.47;45.70;;;;;;;8.79;100.00;100333.50;1765319;81;25582;-68
2024/02/28 06:23:30;;;;;;;73.57;45.10;;;;;;;8.81;100.00;100333.21;1765278;81;27583;-67
2024/02/28 06:25:57;;;;;;;77.40;44.77;;;;;;;8.80;100.00;100338.34;1765200;81;25542;-67
2024/02/28 06:28:24;;;;;;;73.20;44.93;;;;;;;8.81;100.00;100348.05;1765276;79;25451;-68
2024/02/28 06:30:50;;;;;;;79.32;46.63;;;;;;;8.82;100.00;100348.31;1765162;81;25791;-68
2024/02/28 06:33:18;;;;;;;74.50;45.33;;;;;;;8.82;100.00;100349.66;1765207;81;25616;-68
2024/02/28 06:35:47;;;;;;;77.15;47.00;;;;;;;8.84;100.00;100354.20;1765174;81;27367;-68
2024/02/28 06:38:13;;;;;;;77.30;47.25;;;;;;;8.84;100.00;100355.55;1765211;81;25591;-68
2024/02/28 06:40:41;;;;;;;83.52;49.25;;;;;;;8.85;100.00;100357.69;1765210;81;25544;-67
2024/02/28 06:43:07;;;;;;;78.85;46.40;;;;;;;8.86;100.00;100358.75;1765139;81;25651;-68
2024/02/28 06:45:36;;;;;;;83.85;48.80;;;;;;;8.88;100.00;100357.11;1765217;80;25537;-68
2024/02/28 06:48:06;;;;;;;78.62;48.68;;;;;;;8.90;100.00;100354.34;1765340;81;27562;-68
2024/02/28 06:50:33;;;;;;;80.62;48.73;;;;;;;8.92;100.00;100353.53;1765341;81;25581;-68
2024/02/28 06:52:59;;;;;;;81.28;48.65;;;;;;;8.94;100.00;100356.73;1765433;81;25607;-68
2024/02/28 06:55:25;;;;;;;77.67;46.65;;;;;;;9.00;100.00;100360.69;1765402;81;25452;-69
2024/02/28 06:57:53;;;;;;;79.17;49.48;;;;;;;9.03;100.00;100366.84;1765389;81;25668;-68
2024/02/28 07:00:21;;;;;;;79.27;48.48;;;;;;;9.07;100.00;100371.33;1765502;81;27425;-68
2024/02/28 07:02:47;;;;;;;76.90;46.85;;;;;;;9.11;100.00;100367.52;1765048;81;25544;-67
2024/02/28 07:05:14;;;;;;;75.75;47.17;;;;;;;9.14;100.00;100376.34;1765204;81;25559;-71
2024/02/28 07:07:40;;;;;;;82.05;49.30;;;;;;;9.20;100.00;100378.42;1765144;81;26148;-67
2024/02/28 07:10:09;;;;;;;89.05;49.42;;;;;;;9.22;100.00;100377.57;1765288;81;25187;-67
2024/02/28 07:12:35;;;;;;;79.75;48.45;;;;;;;9.23;100.00;100375.10;1765256;81;27456;-69
2024/02/28 07:15:04;;;;;;;78.42;48.10;;;;;;;9.27;100.00;100378.27;1765097;81;25479;-69
2024/02/28 07:17:32;;;;;;;81.37;47.95;;;;;;;9.30;100.00;100383.08;1765362;81;25417;-69
2024/02/28 07:19:58;;;;;;;85.10;48.23;;;;;;;9.30;100.00;100385.77;1765165;80;25516;-68
2024/02/28 07:22:25;;;;;;;75.52;47.15;;;;;;;9.31;100.00;100387.39;1765241;81;25469;-69
2024/02/28 07:24:52;;;;;;;77.95;48.40;;;;;;;9.32;100.00;100386.83;1765181;81;28154;-66
2024/02/28 07:27:18;;;;;;;81.40;50.63;;;;;;;9.32;100.00;100388.18;1765080;81;26074;-66
2024/02/28 07:29:44;;;;;;;79.35;49.15;;;;;;;9.39;100.00;100393.19;1765121;81;25622;-67
2024/02/28 07:32:11;;;;;;;80.40;48.85;;;;;;;9.45;100.00;100393.33;1765094;81;25825;-65
2024/02/28 07:34:37;;;;;;;79.62;48.63;;;;;;;9.51;100.00;100389.45;1765138;80;25571;-58
2024/02/28 07:37:04;;;;;;;78.00;46.02;;;;;;;9.58;100.00;100394.45;1765135;81;28040;-61
2024/02/28 07:39:30;;;;;;;77.90;45.95;;;;;;;9.61;100.00;100393.86;1765052;81;25915;-67
2024/02/28 07:41:57;;;;;;;73.78;45.50;;;;;;;9.67;100.00;100392.64;1765140;81;25494;-66
2024/02/28 07:44:23;;;;;;;77.58;45.60;;;;;;;9.72;100.00;100392.02;1765118;81;25820;-66
2024/02/28 07:46:50;;;;;;;82.82;46.42;;;;;;;9.75;100.00;100392.50;1765133;81;25570;-66
2024/02/28 07:49:18;;;;;;;73.02;44.88;;;;;;;9.77;100.00;100394.34;1765158;81;27436;-65
2024/02/28 07:51:44;;;;;;;71.10;45.55;;;;;;;9.79;100.00;100397.02;1765050;81;25449;-65
2024/02/28 07:54:11;;;;;;;73.60;45.98;;;;;;;9.81;100.00;100400.20;1765058;81;25409;-65
2024/02/28 07:56:37;;;;;;;70.90;45.12;;;;;;;9.82;100.00;100399.09;1765085;81;26310;-67
2024/02/28 07:59:04;;;;;;;72.85;43.92;;;;;;;9.83;100.00;100395.30;1765145;81;25413;-66
2024/02/28 08:01:30;;;;;;;79.10;47.00;;;;;;;9.81;100.00;100400.20;1765140;81;27476;-68
2024/02/28 08:03:59;;;;;;;75.40;45.58;;;;;;;9.83;100.00;100399.91;1765075;81;25594;-66
2024/02/28 08:06:26;;;;;;;79.20;46.35;;;;;;;9.85;100.00;100401.20;1765105;81;25453;-67
2024/02/28 08:08:52;;;;;;;78.87;47.67;;;;;;;9.87;100.00;100404.39;1765059;81;25811;-68
2024/02/28 08:11:18;;;;;;;74.65;47.05;;;;;;;9.96;100.00;100414.50;1765115;81;25449;-67
2024/02/28 08:13:45;;;;;;;79.42;47.08;;;;;;;9.99;100.00;100416.04;1756376;81;27548;-67
2024/02/28 08:16:11;;;;;;;73.00;44.27;;;;;;;10.01;100.00;100412.52;1755047;81;25561;-67
2024/02/28 08:18:38;;;;;;;76.28;45.10;;;;;;;10.04;100.00;100415.14;1755115;81;25403;-67
2024/02/28 08:21:05;;;;;;;72.97;46.53;;;;;;;10.07;100.00;100408.58;1755146;81;25493;-67
2024/02/28 08:23:32;;;;;;;101.05;62.62;;;;;;;10.13;100.00;100412.00;1755159;81;25391;-66
2024/02/28 08:25:58;;;;;;;79.67;46.88;;;;;;;10.19;100.00;100409.98;1755096;81;28516;-66
2024/02/28 08:28:25;;;;;;;74.47;45.85;;;;;;;10.25;100.00;100412.27;1755022;81;25398;-67
2024/02/28 08:30:52;;;;;;;71.87;45.78;;;;;;;10.33;100.00;100411.33;1755108;81;25622;-68
2024/02/28 08:33:18;;;;;;;80.65;47.67;;;;;;;10.39;100.00;100415.53;1755087;81;26308;-67
2024/02/28 08:35:46;;;;;;;78.10;46.25;;;;;;;10.48;100.00;100418.30;1755167;81;25431;-66
2024/02/28 08:38:13;;;;;;;77.17;48.13;;;;;;;10.57;100.00;100417.28;1755369;81;28440;-65
2024/02/28 08:40:40;;;;;;;77.35;46.37;;;;;;;10.67;100.00;100426.25;1755029;81;25567;-66
2024/02/28 08:43:06;;;;;;;78.70;47.38;;;;;;;10.69;100.00;100418.06;1755116;81;25512;-66
2024/02/28 08:45:33;;;;;;;73.02;45.03;;;;;;;10.70;100.00;100421.03;1755075;81;25584;-67
2024/02/28 08:48:01;;;;;;;73.12;45.63;;;;;;;10.74;100.00;100415.80;1755035;81;25450;-67
2024/02/28 08:50:29;;;;;;;74.15;46.70;;;;;;;10.79;100.00;100417.03;1755136;81;27918;-67
2024/02/28 08:52:55;;;;;;;70.60;44.53;;;;;;;10.83;100.00;100409.92;1755273;81;26031;-66
2024/02/28 08:55:22;;;;;;;73.57;46.02;;;;;;;10.87;100.00;100415.52;1755080;81;25519;-67
2024/02/28 08:57:50;;;;;;;72.58;44.48;;;;;;;10.90;100.00;100414.91;1755065;81;25603;-68
2024/02/28 09:00:18;;;;;;;71.30;46.08;;;;;;;10.92;100.00;100419.45;1755155;81;25472;-67
2024/02/28 09:02:45;;;;;;;73.57;45.83;;;;;;;10.94;100.00;100410.45;1755107;81;27643;-67
2024/02/28 09:05:12;;;;;;;72.97;44.53;;;;;;;10.95;100.00;100408.02;1755051;81;26119;-67
2024/02/28 09:07:39;;;;;;;77.22;47.58;;;;;;;10.99;100.00;100413.83;1755227;81;25462;-68
2024/02/28 09:10:08;;;;;;;71.97;46.08;;;;;;;11.06;100.00;100412.61;1755148;81;25392;-68
2024/02/28 09:12:34;;;;;;;74.07;46.53;;;;;;;11.15;100.00;100417.51;1755361;81;25417;-68
2024/02/28 09:15:00;;;;;;;74.47;48.23;;;;;;;11.21;100.00;100414.92;1755094;81;27367;-68
2024/02/28 09:17:28;;;;;;;77.82;46.13;;;;;;;11.24;100.00;100419.73;1755004;81;25389;-69
2024/02/28 09:19:54;;;;;;;79.47;48.13;;;;;;;11.30;100.00;100419.03;1755181;81;25421;-67
2024/02/28 09:22:21;;;;;;;82.92;47.55;;;;;;;11.33;100.00;100417.85;1755255;81;25622;-67
2024/02/28 09:24:48;;;;;;;73.07;47.10;;;;;;;11.36;100.00;100425.92;1755265;81;25557;-68
2024/02/28 09:27:15;;;;;;;77.60;47.60;;;;;;;11.45;100.00;100425.40;1755251;81;27413;-67
2024/02/28 09:29:42;;;;;;;77.12;46.98;;;;;;;11.49;100.00;100425.04;1755162;81;25405;-67
2024/02/28 09:32:09;;;;;;;75.37;47.60;;;;;;;11.55;100.00;100428.41;1755252;81;25382;-65
2024/02/28 09:34:37;;;;;;;92.70;59.13;;;;;;;11.60;100.00;100429.63;1755164;81;25668;-65
2024/02/28 09:37:05;;;;;;;101.47;65.50;;;;;;;11.70;100.00;100428.55;1755272;81;25421;-66
2024/02/28 09:39:31;;;;;;;77.45;48.90;;;;;;;11.82;100.00;100432.02;1755248;81;27432;-66
2024/02/28 09:41:59;;;;;;;76.22;47.60;;;;;;;11.95;100.00;100431.11;1755163;81;25554;-66
2024/02/28 09:44:27;;;;;;;72.30;46.40;;;;;;;12.10;100.00;100438.02;1755246;81;25565;-66
2024/02/28 09:46:54;;;;;;;77.07;45.37;;;;;;;12.14;100.00;100431.66;1729750;81;26201;-66
2024/02/28 09:49:22;;;;;;;70.25;44.30;;;;;;;12.18;100.00;100433.75;1755261;81;25633;-66
2024/02/28 09:51:50;;;;;;;70.32;44.60;;;;;;;12.23;100.00;100437.66;1755388;81;27650;-65
2024/02/28 09:54:17;;;;;;;69.50;44.00;;;;;;;12.29;100.00;100433.66;1755354;81;26084;-64
2024/02/28 09:56:44;;;;;;;75.75;44.00;;;;;;;12.41;100.00;100434.40;1755221;81;25561;-66
2024/02/28 09:59:13;;;;;;;71.02;46.37;;;;;;;12.49;100.00;100444.47;1755179;81;25810;-66
2024/02/28 10:01:47;;;;;;;70.62;44.65;;;;;;;12.62;100.00;100444.88;1755380;81;25400;-66
2024/02/28 10:04:14;;;;;;;67.15;43.87;;;;;;;12.87;100.00;100441.11;1755273;81;28050;-65
2024/02/28 10:06:41;;;;;;;66.57;41.48;;;;;;;13.00;100.00;100435.28;1755165;81;25602;-64
2024/02/28 10:09:08;;;;;;;64.75;40.55;;;;;;;13.08;100.00;100441.27;1755228;81;25455;-65
2024/02/28 10:11:40;;;;;;;58.35;39.33;;;;;;;13.05;100.00;100438.62;1755195;81;25498;-64
2024/02/28 10:14:02;;;;;;;60.05;37.55;;;;;;;13.05;100.00;100436.47;1753227;81;25766;-64
2024/02/28 10:16:30;;;;;;;56.83;36.95;;;;;;;13.05;100.00;100437.27;1729576;81;28529;-65
2024/02/28 10:18:56;;;;;;;57.33;37.98;;;;;;;12.97;99.62;100439.42;1755123;81;25761;-64
2024/02/28 10:21:24;;;;;;;57.65;37.95;;;;;;;12.91;99.70;100435.86;1755207;81;25592;-64
2024/02/28 10:23:50;;;;;;;55.83;36.28;;;;;;;12.84;99.83;100441.20;1755178;81;26096;-64
2024/02/28 10:26:18;;;;;;;58.70;37.13;;;;;;;12.80;99.82;100451.09;1755228;81;25403;-64
2024/02/28 10:28:45;;;;;;;57.27;36.58;;;;;;;12.77;99.62;100450.94;1755190;81;27483;-64
2024/02/28 10:31:12;;;;;;;60.38;36.48;;;;;;;12.73;99.75;100452.70;1755102;81;26149;-65
2024/02/28 10:33:41;;;;;;;59.98;37.00;;;;;;;12.68;99.56;100453.66;1729025;81;25484;-64
2024/02/28 10:36:08;;;;;;;58.33;35.65;;;;;;;12.65;100.00;100452.92;1755143;81;26501;-64
2024/02/28 10:38:34;;;;;;;53.83;35.17;;;;;;;12.58;99.21;100452.61;1755205;81;25402;-65
2024/02/28 10:41:02;;;;;;;57.20;35.48;;;;;;;12.52;99.36;100454.69;1755189;81;27378;-64
2024/02/28 10:43:31;;;;;;;58.02;34.92;;;;;;;12.50;99.99;100456.92;1755111;81;25555;-65
2024/02/28 10:45:59;;;;;;;61.10;39.90;;;;;;;12.47;99.77;100456.99;1755327;81;25623;-66
2024/02/28 10:48:27;;;;;;;60.78;40.00;;;;;;;12.44;99.95;100456.83;1755140;81;25492;-70
2024/02/28 10:50:55;;;;;;;53.58;35.35;;;;;;;12.44;100.00;100459.55;1755213;81;25415;-65
2024/02/28 10:53:29;;;;;;;52.48;34.43;;;;;;;12.43;100.00;100455.22;1755183;81;28452;-65
2024/02/28 10:56:00;;;;;;;55.08;35.25;;;;;;;12.42;100.00;100461.21;1754378;81;25623;-65
2024/02/28 10:58:32;;;;;;;57.78;34.33;;;;;;;12.45;100.00;100456.52;1755210;81;25630;-65
2024/02/28 11:00:58;;;;;;;56.65;34.63;;;;;;;12.47;100.00;100454.28;1754715;81;25572;-65
2024/02/28 11:03:24;;;;;;;52.30;33.15;;;;;;;12.49;100.00;100451.25;1755208;81;25475;-64
2024/02/28 11:05:51;;;;;;;54.35;34.50;;;;;;;12.54;100.00;100455.73;1755201;81;27471;-65
2024/02/28 11:08:24;;;;;;;52.45;33.33;;;;;;;12.52;100.00;100447.91;1755140;81;25697;-65
2024/02/28 11:11:04;;;;;;;55.55;33.67;;;;;;;12.58;100.00;100456.68;1755241;81;25554;-64